Time;durP1;ratioP1;P1;durP2;ratioP2;P2;SDS_P1;SDS_P2;PMS_P1;PMS_P2;Temp;Humidity;BMP_temperature;BMP_pressure;BME280_temperature;BME280_humidity;BME280_pressure;Samples;Min_cycle;Max_cycle;Signal;HPM_P1;HPM_P2
2022/12/28 00:00:16;;;;;;;108.70;89.13;;;0.60;40.20;;;;;;5091907;28;20252;-71
2022/12/28 00:02:42;;;;;;;177.57;163.57;;;0.70;40.60;;;;;;5091376;28;20219;-71
2022/12/28 00:05:08;;;;;;;102.37;82.00;;;0.70;39.70;;;;;;5091969;28;20193;-70
2022/12/28 00:07:33;;;;;;;204.17;186.57;;;0.70;39.60;;;;;;5091783;28;20177;-69
2022/12/28 00:09:59;;;;;;;176.67;161.60;;;0.70;38.70;;;;;;5091725;28;20498;-69
2022/12/28 00:12:24;;;;;;;397.43;369.23;;;0.70;39.00;;;;;;5091372;28;20227;-70
2022/12/28 00:14:50;;;;;;;189.20;173.97;;;0.60;38.70;;;;;;5091626;28;20165;-69
2022/12/28 00:17:15;;;;;;;155.73;141.30;;;0.50;38.40;;;;;;5091531;28;20458;-70
2022/12/28 00:19:41;;;;;;;133.10;120.77;;;0.50;39.50;;;;;;5107054;28;20274;-71
2022/12/28 00:22:06;;;;;;;184.00;168.30;;;0.50;39.40;;;;;;5091179;28;20208;-71
2022/12/28 00:24:32;;;;;;;282.50;260.70;;;0.50;39.50;;;;;;5091646;28;20177;-71
2022/12/28 00:26:57;;;;;;;155.93;142.50;;;0.50;39.50;;;;;;5107239;28;20177;-71
2022/12/28 00:29:23;;;;;;;149.60;136.07;;;0.40;39.90;;;;;;5091543;28;20173;-71
2022/12/28 00:31:48;;;;;;;140.73;127.67;;;0.40;39.30;;;;;;5093156;28;20315;-73
2022/12/28 00:34:14;;;;;;;120.87;108.33;;;0.40;40.00;;;;;;5095736;28;20177;-71
2022/12/28 00:36:40;;;;;;;108.30;96.47;;;0.40;40.40;;;;;;5095094;28;20173;-71
2022/12/28 00:39:06;;;;;;;126.18;114.22;;;0.50;39.70;;;;;;5095131;28;20774;-71
2022/12/28 00:41:31;;;;;;;99.43;80.93;;;0.60;39.50;;;;;;5095888;28;20216;-71
2022/12/28 00:43:57;;;;;;;134.43;122.30;;;0.60;40.20;;;;;;5094947;28;20176;-71
2022/12/28 00:46:22;;;;;;;103.97;92.87;;;0.70;40.40;;;;;;5095206;28;20173;-71
2022/12/28 00:48:48;;;;;;;184.30;169.53;;;0.70;41.40;;;;;;5094912;28;20187;-71
2022/12/28 00:51:15;;;;;;;238.27;220.53;;;0.80;41.60;;;;;;5094975;28;20193;-71
2022/12/28 00:53:41;;;;;;;95.38;85.13;;;1.00;42.10;;;;;;5094656;28;20291;-71
2022/12/28 00:56:13;;;;;;;120.87;109.20;;;1.20;42.40;;;;;;5094924;28;20268;-69
2022/12/28 00:58:38;;;;;;;219.38;203.80;;;1.40;41.30;;;;;;5094762;28;20192;-71
2022/12/28 01:01:11;;;;;;;236.07;219.30;;;1.50;39.90;;;;;;5094738;28;20602;-70
2022/12/28 01:03:37;;;;;;;127.45;116.22;;;1.70;39.80;;;;;;5094765;28;20457;-71
2022/12/28 01:06:07;;;;;;;228.77;212.33;;;1.70;39.90;;;;;;5094699;28;20718;-69
2022/12/28 01:08:34;;;;;;;312.02;289.77;;;1.80;38.70;;;;;;5094625;28;20207;-71
2022/12/28 01:11:04;;;;;;;193.52;178.13;;;1.80;37.70;;;;;;5094604;28;20276;-69
2022/12/28 01:13:30;;;;;;;368.90;344.33;;;1.80;38.00;;;;;;5094204;28;20189;-71
2022/12/28 01:15:55;;;;;;;210.07;194.80;;;1.90;35.50;;;;;;5110155;28;20312;-69
2022/12/28 01:18:21;;;;;;;311.30;289.03;;;1.90;35.50;;;;;;5094543;28;20179;-70
2022/12/28 01:20:46;;;;;;;380.63;353.67;;;1.80;35.40;;;;;;5094442;28;20204;-69
2022/12/28 01:23:12;;;;;;;170.90;157.43;;;1.70;35.40;;;;;;5094510;28;20185;-69
2022/12/28 01:25:37;;;;;;;243.93;226.70;;;1.70;35.40;;;;;;5094386;28;20665;-70
2022/12/28 01:28:03;;;;;;;239.33;221.77;;;1.70;34.90;;;;;;5094319;28;20186;-69
2022/12/28 01:30:29;;;;;;;337.23;312.60;;;1.70;34.50;;;;;;5109740;28;20243;-69
2022/12/28 01:32:57;;;;;;;212.03;196.10;;;1.70;33.80;;;;;;5093867;28;20291;-70
2022/12/28 01:35:22;;;;;;;305.52;284.15;;;1.70;34.90;;;;;;5094195;28;20430;-70
2022/12/28 01:37:48;;;;;;;156.47;143.87;;;1.70;34.10;;;;;;5094215;28;20179;-70
2022/12/28 01:40:14;;;;;;;162.40;148.90;;;1.70;34.80;;;;;;5094152;28;20174;-71
2022/12/28 01:42:40;;;;;;;120.50;109.38;;;1.80;35.40;;;;;;5093022;28;20217;-70
2022/12/28 01:45:17;;;;;;;160.60;147.47;;;1.80;35.40;;;;;;5093865;28;20179;-70
2022/12/28 01:47:45;;;;;;;229.23;212.27;;;1.90;35.50;;;;;;5093968;28;20203;-71
2022/12/28 01:50:17;;;;;;;243.68;224.43;;;2.10;35.40;;;;;;5093597;28;20609;-71
2022/12/28 01:52:56;;;;;;;361.70;336.02;;;2.20;34.60;;;;;;5093319;28;20197;-71
2022/12/28 01:55:26;;;;;;;185.45;171.35;;;2.30;34.80;;;;;;5093716;28;20227;-71
2022/12/28 01:58:12;;;;;;;321.02;297.48;;;2.40;34.10;;;;;;5093766;28;20261;-71
2022/12/28 02:00:39;;;;;;;190.30;175.18;;;2.60;32.70;;;;;;5093584;28;20163;-71
2022/12/28 02:03:20;;;;;;;351.58;327.23;;;2.70;33.00;;;;;;5093302;28;20177;-71
2022/12/28 02:05:49;;;;;;;153.60;139.63;;;2.70;31.90;;;;;;5093467;28;20174;-72
2022/12/28 02:08:58;;;;;;;524.58;487.77;;;2.80;31.20;;;;;;5093448;28;20612;-71
2022/12/28 02:11:23;;;;;;;319.17;296.60;;;2.90;30.40;;;;;;5082408;28;20222;-72
2022/12/28 02:13:50;;;;;;;177.07;163.27;;;3.00;29.70;;;;;;5093103;28;20206;-72
2022/12/28 02:16:16;;;;;;;446.55;414.65;;;3.10;29.80;;;;;;5093477;28;20724;-72
2022/12/28 02:18:43;;;;;;;267.23;246.80;;;3.10;29.70;;;;;;5093326;28;20236;-72
2022/12/28 02:21:09;;;;;;;96.95;85.53;;;3.20;29.30;;;;;;5093116;28;20204;-72
2022/12/28 02:23:52;;;;;;;318.07;295.20;;;3.20;29.60;;;;;;5092960;28;20179;-72
2022/12/28 02:26:36;;;;;;;224.10;206.45;;;3.30;28.70;;;;;;5093179;28;20572;-71
2022/12/28 02:29:41;;;;;;;212.85;195.70;;;3.30;27.70;;;;;;5093318;28;20175;-71
2022/12/28 02:32:19;;;;;;;298.98;278.60;;;3.40;27.30;;;;;;5092532;28;20199;-71
2022/12/28 02:34:56;;;;;;;296.23;273.80;;;3.50;27.40;;;;;;5092903;28;20529;-71
2022/12/28 02:37:39;;;;;;;208.35;191.57;;;3.50;27.40;;;;;;5108597;28;20203;-71
2022/12/28 02:40:14;;;;;;;362.40;336.17;;;3.60;27.50;;;;;;5093176;28;20677;-71
2022/12/28 02:42:40;;;;;;;291.13;268.40;;;3.60;27.10;;;;;;5092392;28;20404;-71
2022/12/28 02:51:07;;;;;;;235.18;218.02;;;3.80;26.80;;;;;;5092815;28;20608;-71
2022/12/28 02:54:06;;;;;;;411.15;381.38;;;3.80;26.30;;;;;;5092131;28;20582;-71
2022/12/28 02:56:51;;;;;;;140.65;127.30;;;3.90;26.30;;;;;;5107784;28;20184;-71
2022/12/28 02:59:43;;;;;;;119.72;107.75;;;3.90;25.90;;;;;;5092408;28;20172;-72
2022/12/28 03:02:24;;;;;;;275.38;253.90;;;4.00;25.60;;;;;;5092509;28;20200;-72
2022/12/28 03:08:13;;;;;;;252.88;232.23;;;4.00;25.40;;;;;;5092399;28;20193;-72
2022/12/28 03:08:18;;;;;;;236.77;218.15;;;4.10;25.30;;;;;;5092421;28;20192;-72
2022/12/28 03:10:56;;;;;;;143.43;130.43;;;4.20;24.80;;;;;;5108122;28;20218;-72
2022/12/28 03:13:44;;;;;;;94.88;73.70;;;4.20;24.60;;;;;;5107864;28;20215;-72
2022/12/28 03:25:41;;;;;;;407.00;379.13;;;4.30;24.40;;;;;;5092374;28;20178;-72
2022/12/28 03:33:07;;;;;;;157.05;142.40;;;4.60;23.50;;;;;;5092117;28;20453;-72
2022/12/28 03:35:59;;;;;;;153.50;138.77;;;4.70;22.90;;;;;;5091925;28;20185;-72
2022/12/28 03:38:42;;;;;;;290.27;267.00;;;4.80;22.60;;;;;;5091996;28;20446;-72
2022/12/28 03:41:33;;;;;;;257.38;238.60;;;4.80;22.30;;;;;;5091911;28;20476;-70
2022/12/28 03:44:08;;;;;;;226.35;207.52;;;4.80;22.10;;;;;;5091861;28;20216;-69
2022/12/28 03:46:58;;;;;;;165.20;151.00;;;4.90;21.90;;;;;;5091746;28;20175;-70
2022/12/28 03:49:24;;;;;;;352.53;325.97;;;4.90;21.70;;;;;;5091853;28;20173;-69
2022/12/28 03:51:51;;;;;;;299.43;277.13;;;4.90;21.80;;;;;;5091374;28;20427;-70
2022/12/28 03:54:17;;;;;;;329.03;303.53;;;5.00;22.10;;;;;;5091702;28;20454;-69
2022/12/28 03:56:51;;;;;;;180.37;166.03;;;5.00;21.80;;;;;;5091931;28;20415;-69
2022/12/28 03:59:20;;;;;;;424.87;393.03;;;5.00;21.40;;;;;;5091870;28;20828;-70
2022/12/28 04:01:45;;;;;;;293.97;270.87;;;5.00;21.30;;;;;;5091462;28;20521;-69
2022/12/28 04:04:11;;;;;;;278.67;257.03;;;5.10;20.90;;;;;;5091977;28;20505;-69
2022/12/28 04:06:36;;;;;;;388.17;362.33;;;5.10;21.10;;;;;;5109259;28;20191;-69
2022/12/28 04:09:04;;;;;;;314.20;289.13;;;5.10;21.10;;;;;;5095755;28;20624;-69
2022/12/28 04:11:29;;;;;;;132.03;118.97;;;5.10;20.90;;;;;;5095506;28;20288;-69
2022/12/28 04:13:55;;;;;;;228.40;210.93;;;5.10;21.00;;;;;;5095772;28;21043;-69
2022/12/28 04:16:20;;;;;;;122.40;109.30;;;5.20;21.30;;;;;;5095569;28;20638;-69
2022/12/28 04:18:46;;;;;;;186.20;171.10;;;5.20;20.70;;;;;;5095636;28;20181;-69
2022/12/28 04:21:13;;;;;;;133.60;117.67;;;5.30;20.80;;;;;;5095380;28;20204;-69
2022/12/28 04:23:38;;;;;;;520.13;483.97;;;5.30;20.40;;;;;;5095323;28;20190;-69
2022/12/28 04:26:07;;;;;;;259.50;239.10;;;5.20;20.30;;;;;;5111200;28;20802;-70
2022/12/28 04:28:33;;;;;;;250.70;231.10;;;5.20;20.40;;;;;;5095450;28;20690;-69
2022/12/28 04:31:00;;;;;;;209.87;193.07;;;5.20;20.70;;;;;;5095266;28;20933;-69
2022/12/28 04:33:26;;;;;;;265.07;243.53;;;5.20;20.90;;;;;;5094923;28;20449;-70
2022/12/28 04:35:52;;;;;;;267.93;247.83;;;5.20;20.50;;;;;;5110977;28;20481;-70
2022/12/28 04:38:19;;;;;;;230.97;213.23;;;5.30;20.70;;;;;;5095521;28;20421;-70
2022/12/28 04:40:44;;;;;;;270.73;250.10;;;5.20;21.40;;;;;;5094971;28;21008;-70
2022/12/28 04:43:10;;;;;;;374.50;346.27;;;5.20;21.10;;;;;;5094935;28;20500;-70
2022/12/28 04:45:36;;;;;;;155.93;142.57;;;5.20;20.70;;;;;;5095029;28;20178;-70
2022/12/28 04:48:01;;;;;;;176.90;162.67;;;5.20;21.40;;;;;;5094943;28;20184;-70
2022/12/28 04:50:27;;;;;;;297.80;277.40;;;5.20;21.00;;;;;;5094765;28;20173;-70
2022/12/28 04:52:53;;;;;;;290.77;269.27;;;5.20;21.30;;;;;;5094511;28;20509;-70
2022/12/28 04:55:19;;;;;;;335.90;312.20;;;5.20;22.10;;;;;;5094845;28;20430;-70
2022/12/28 04:57:45;;;;;;;195.77;178.77;;;5.20;21.40;;;;;;5094910;28;20184;-71
2022/12/28 05:00:12;;;;;;;496.47;463.87;;;5.20;21.10;;;;;;5094802;28;20184;-71
2022/12/28 05:02:40;;;;;;;534.60;498.60;;;5.20;21.40;;;;;;5094334;28;20949;-68
2022/12/28 05:05:06;;;;;;;172.60;156.33;;;5.20;21.30;;;;;;5094648;28;20422;-70
2022/12/28 05:07:32;;;;;;;406.03;377.60;;;5.20;21.10;;;;;;5094643;28;20419;-71
2022/12/28 05:09:57;;;;;;;390.67;363.83;;;5.20;21.50;;;;;;5094562;28;20527;-71
2022/12/28 05:12:24;;;;;;;421.17;390.73;;;5.10;22.10;;;;;;5094152;28;20676;-72
2022/12/28 05:14:50;;;;;;;203.53;185.93;;;5.10;21.60;;;;;;5094463;28;20276;-72
2022/12/28 05:17:15;;;;;;;127.73;116.57;;;5.10;21.80;;;;;;5093690;28;20454;-71
2022/12/28 05:19:41;;;;;;;236.83;218.17;;;5.10;21.90;;;;;;5094078;28;20184;-71
2022/12/28 05:22:10;;;;;;;260.60;240.40;;;5.00;21.80;;;;;;5094132;28;20207;-71
2022/12/28 05:24:37;;;;;;;183.23;166.87;;;5.00;22.10;;;;;;5094652;28;20173;-73
2022/12/28 05:27:03;;;;;;;301.93;278.30;;;5.00;22.10;;;;;;5094342;28;20422;-72
2022/12/28 05:29:28;;;;;;;114.17;103.07;;;5.10;22.00;;;;;;5110140;28;20419;-72
2022/12/28 05:31:54;;;;;;;427.80;396.37;;;5.10;22.30;;;;;;5093893;28;20439;-72
2022/12/28 05:34:19;;;;;;;215.13;198.47;;;5.10;22.40;;;;;;5094864;28;20246;-72
2022/12/28 05:36:45;;;;;;;238.63;219.30;;;5.20;22.30;;;;;;5094349;28;20639;-72
2022/12/28 05:39:10;;;;;;;271.63;249.57;;;5.20;22.00;;;;;;5094205;28;20180;-72
2022/12/28 05:41:36;;;;;;;292.63;270.50;;;5.20;21.80;;;;;;5117417;22;20225;-70
2022/12/28 05:44:01;;;;;;;252.57;233.10;;;5.20;22.30;;;;;;5094153;28;20191;-71
2022/12/28 05:46:29;;;;;;;105.77;90.67;;;5.20;21.80;;;;;;5093883;28;20256;-70
2022/12/28 05:48:55;;;;;;;303.47;280.77;;;5.30;21.90;;;;;;5109508;28;20526;-71
2022/12/28 05:51:23;;;;;;;350.80;326.13;;;5.20;21.90;;;;;;5093831;28;20429;-71
2022/12/28 05:53:49;;;;;;;129.87;117.30;;;5.20;21.90;;;;;;5093877;28;20820;-71
2022/12/28 05:56:20;;;;;;;201.07;184.47;;;5.20;22.00;;;;;;5093944;28;20423;-71
2022/12/28 05:58:50;;;;;;;280.57;258.80;;;5.20;22.00;;;;;;5109407;28;20181;-71
2022/12/28 06:01:19;;;;;;;223.50;205.30;;;5.30;22.30;;;;;;5092473;28;20442;-70
2022/12/28 06:03:46;;;;;;;333.07;307.23;;;5.30;22.00;;;;;;5093493;28;20432;-70
2022/12/28 06:06:17;;;;;;;329.27;305.87;;;5.30;21.90;;;;;;5093672;28;20429;-70
2022/12/28 06:08:43;;;;;;;546.03;507.13;;;5.30;21.60;;;;;;5109222;28;20426;-71
2022/12/28 06:11:12;;;;;;;379.87;353.40;;;5.40;21.60;;;;;;5093321;28;20795;-71
2022/12/28 06:13:38;;;;;;;358.97;332.77;;;5.30;22.10;;;;;;5093005;28;20465;-71
2022/12/28 06:16:08;;;;;;;293.30;271.00;;;5.30;22.30;;;;;;5109031;28;20415;-70
2022/12/28 06:18:34;;;;;;;224.10;206.07;;;5.40;22.40;;;;;;5108881;28;20228;-71
2022/12/28 06:21:12;;;;;;;337.83;314.33;;;5.40;21.90;;;;;;5093067;28;20473;-71
2022/12/28 06:23:37;;;;;;;182.00;166.47;;;5.40;22.30;;;;;;5108532;28;20422;-70
2022/12/28 06:26:05;;;;;;;156.67;144.10;;;5.40;21.70;;;;;;5093047;28;21037;-71
2022/12/28 06:28:31;;;;;;;512.90;476.20;;;5.40;22.10;;;;;;5092753;28;20173;-70
2022/12/28 06:31:04;;;;;;;275.93;254.13;;;5.40;21.80;;;;;;5091632;28;20446;-70
2022/12/28 06:33:31;;;;;;;121.10;108.47;;;5.40;21.80;;;;;;5108391;28;20232;-70
2022/12/28 06:35:56;;;;;;;236.67;216.90;;;5.40;21.60;;;;;;5093482;28;20411;-70
2022/12/28 06:38:22;;;;;;;332.07;308.57;;;5.40;21.60;;;;;;5108806;28;20437;-71
2022/12/28 06:40:47;;;;;;;346.43;319.87;;;5.40;21.20;;;;;;5108474;28;20183;-70
2022/12/28 06:43:13;;;;;;;218.80;200.33;;;5.40;21.60;;;;;;5092713;28;20539;-71
2022/12/28 06:45:38;;;;;;;226.87;208.47;;;5.40;21.50;;;;;;5093012;28;20183;-70
2022/12/28 06:48:04;;;;;;;235.20;215.23;;;5.40;21.50;;;;;;5092803;28;20194;-70
2022/12/28 06:50:30;;;;;;;408.57;380.80;;;5.40;21.90;;;;;;5108394;28;20576;-71
2022/12/28 06:52:55;;;;;;;233.83;215.57;;;5.40;22.10;;;;;;5107894;28;20203;-71
2022/12/28 06:55:21;;;;;;;220.83;203.27;;;5.40;21.80;;;;;;5092531;28;20176;-72
2022/12/28 06:57:46;;;;;;;416.70;387.00;;;5.30;22.00;;;;;;5108165;28;20590;-73
2022/12/28 07:00:12;;;;;;;246.73;227.03;;;5.40;21.80;;;;;;5092554;28;20191;-76
2022/12/28 07:02:38;;;;;;;474.70;440.43;;;5.40;21.70;;;;;;5092202;28;20258;-70
2022/12/28 07:05:03;;;;;;;472.20;440.23;;;5.40;21.70;;;;;;5092431;28;20431;-70
2022/12/28 07:07:29;;;;;;;201.80;186.13;;;5.30;21.80;;;;;;5092456;28;20215;-69
2022/12/28 07:09:54;;;;;;;374.53;348.83;;;5.30;22.10;;;;;;5092369;28;20181;-70
2022/12/28 07:12:20;;;;;;;330.13;305.40;;;5.40;21.70;;;;;;5092121;28;20217;-70
2022/12/28 07:14:45;;;;;;;330.60;304.77;;;5.30;21.80;;;;;;5092669;28;20218;-70
2022/12/28 07:17:11;;;;;;;303.07;280.47;;;5.30;21.70;;;;;;5092524;28;20201;-68
2022/12/28 07:19:36;;;;;;;229.03;210.37;;;5.30;21.90;;;;;;5092292;28;20248;-70
2022/12/28 07:22:02;;;;;;;178.20;163.47;;;5.20;22.00;;;;;;5092002;28;20193;-68
2022/12/28 07:24:28;;;;;;;294.03;271.07;;;5.20;21.90;;;;;;5092381;28;20180;-68
2022/12/28 07:26:53;;;;;;;320.17;295.93;;;5.20;22.10;;;;;;5092257;28;20174;-69
2022/12/28 07:29:19;;;;;;;401.30;371.10;;;5.30;22.10;;;;;;5092257;28;20244;-71
2022/12/28 07:31:44;;;;;;;325.60;301.07;;;5.20;22.20;;;;;;5091885;28;20826;-70
2022/12/28 07:34:10;;;;;;;374.37;346.73;;;5.30;22.20;;;;;;5092206;28;20213;-70
2022/12/28 07:36:36;;;;;;;92.87;77.80;;;5.30;21.80;;;;;;5092201;28;20180;-70
2022/12/28 07:39:01;;;;;;;307.07;285.27;;;5.40;21.80;;;;;;5092077;28;20461;-70
2022/12/28 07:41:29;;;;;;;439.60;410.17;;;5.40;21.30;;;;;;5095544;28;20212;-70
2022/12/28 07:43:55;;;;;;;279.33;257.27;;;5.40;21.60;;;;;;5098682;28;20572;-70
2022/12/28 07:46:24;;;;;;;249.07;229.43;;;5.40;21.60;;;;;;5098801;28;20418;-67
2022/12/28 07:48:50;;;;;;;434.37;402.23;;;5.50;21.20;;;;;;5098918;28;20173;-69
2022/12/28 07:51:22;;;;;;;219.50;201.60;;;5.60;21.00;;;;;;5098542;28;20446;-69
2022/12/28 07:53:49;;;;;;;265.93;246.77;;;5.60;20.60;;;;;;5114083;28;20450;-69
2022/12/28 07:56:16;;;;;;;318.30;294.40;;;5.80;20.30;;;;;;5098082;28;20419;-69
2022/12/28 07:58:46;;;;;;;412.47;383.10;;;5.80;19.80;;;;;;5098588;28;20494;-69
2022/12/28 08:01:14;;;;;;;500.73;466.80;;;6.00;19.90;;;;;;5098413;28;20522;-69
2022/12/28 08:03:40;;;;;;;278.93;258.53;;;6.00;19.50;;;;;;5098231;28;20467;-69
2022/12/28 08:06:13;;;;;;;351.00;325.07;;;6.00;19.70;;;;;;5097177;28;20427;-69
2022/12/28 08:08:42;;;;;;;150.93;136.90;;;5.90;19.70;;;;;;5098449;28;20426;-69
2022/12/28 08:11:16;;;;;;;377.90;351.03;;;5.90;20.20;;;;;;5098236;28;20956;-69
2022/12/28 08:13:43;;;;;;;234.93;216.73;;;5.90;19.40;;;;;;5096679;28;20458;-69
2022/12/28 08:16:11;;;;;;;363.40;339.60;;;5.90;19.60;;;;;;5097124;28;20467;-69
2022/12/28 08:18:39;;;;;;;100.20;88.03;;;6.00;19.70;;;;;;5097004;28;20870;-69
2022/12/28 08:21:17;;;;;;;443.17;412.10;;;6.00;19.80;;;;;;5098358;28;20427;-69
2022/12/28 08:23:43;;;;;;;223.20;205.37;;;6.00;19.70;;;;;;5096181;28;20426;-69
2022/12/28 08:26:11;;;;;;;211.60;194.50;;;6.00;19.10;;;;;;5086422;28;20449;-69
2022/12/28 08:28:37;;;;;;;238.17;218.77;;;6.10;19.20;;;;;;5077179;28;20416;-69
2022/12/28 08:31:05;;;;;;;371.23;344.70;;;6.10;19.00;;;;;;5077068;28;20825;-69
2022/12/28 08:33:31;;;;;;;374.60;348.00;;;6.20;18.90;;;;;;5078135;28;20963;-69
2022/12/28 08:35:56;;;;;;;301.23;279.77;;;6.20;18.80;;;;;;5076941;28;20419;-69
2022/12/28 08:38:22;;;;;;;217.57;200.07;;;6.20;18.80;;;;;;5090211;28;20186;-69
2022/12/28 08:40:58;;;;;;;307.67;286.30;;;6.30;18.50;;;;;;5097964;28;20634;-69
2022/12/28 08:43:25;;;;;;;362.77;337.37;;;6.40;18.20;;;;;;5088199;28;20181;-69
2022/12/28 08:46:04;;;;;;;201.90;185.93;;;6.40;18.20;;;;;;5077712;28;20970;-69
2022/12/28 08:48:31;;;;;;;177.63;162.37;;;6.50;17.90;;;;;;5090829;28;20433;-69
2022/12/28 08:51:08;;;;;;;324.43;301.67;;;6.60;17.70;;;;;;5098186;28;20411;-69
2022/12/28 08:53:34;;;;;;;250.00;231.53;;;6.60;17.50;;;;;;5093474;28;20462;-68
2022/12/28 08:56:13;;;;;;;268.60;248.87;;;6.60;17.40;;;;;;5094903;28;20438;-69
2022/12/28 08:58:40;;;;;;;251.23;232.60;;;6.60;17.30;;;;;;5095317;28;20451;-68
2022/12/28 09:01:11;;;;;;;230.10;213.17;;;6.70;17.40;;;;;;5094597;28;20955;-69
2022/12/28 09:03:40;;;;;;;227.00;209.33;;;6.70;17.70;;;;;;5094596;28;20501;-68
2022/12/28 09:06:08;;;;;;;434.43;402.73;;;6.70;17.80;;;;;;5094470;28;20959;-68
2022/12/28 09:08:34;;;;;;;312.40;289.40;;;6.70;17.70;;;;;;5094589;28;20418;-70
2022/12/28 09:11:01;;;;;;;350.63;324.83;;;6.70;17.30;;;;;;5094957;28;20471;-68
2022/12/28 09:13:27;;;;;;;261.73;241.90;;;6.80;17.30;;;;;;5094309;28;20465;-69
2022/12/28 09:15:58;;;;;;;284.03;264.20;;;6.80;17.00;;;;;;5093177;28;20781;-68
2022/12/28 09:18:24;;;;;;;284.63;263.50;;;6.90;17.10;;;;;;5093316;28;20411;-68
2022/12/28 09:20:50;;;;;;;422.87;393.53;;;6.90;17.10;;;;;;5076960;28;20473;-69
2022/12/28 09:23:16;;;;;;;248.17;228.87;;;6.90;17.10;;;;;;5074086;28;20842;-69
2022/12/28 09:25:41;;;;;;;359.27;333.57;;;6.90;17.10;;;;;;5077599;28;20655;-68
2022/12/28 09:28:07;;;;;;;330.87;307.03;;;6.90;17.10;;;;;;5093137;28;20228;-69
2022/12/28 09:30:32;;;;;;;206.17;188.93;;;7.00;17.20;;;;;;5093114;28;20185;-71
2022/12/28 09:35:42;;;;;;;378.40;351.47;;;7.30;16.20;;;;;;5094636;28;20186;-68
2022/12/28 09:38:07;;;;;;;172.57;158.17;;;7.40;15.80;;;;;;5107955;28;20811;-69
2022/12/28 09:40:34;;;;;;;492.03;457.83;;;7.50;15.80;;;;;;5083956;28;20233;-69
2022/12/28 09:43:00;;;;;;;244.27;223.53;;;7.60;15.50;;;;;;5068099;28;20233;-70
2022/12/28 09:45:26;;;;;;;238.43;218.97;;;7.60;15.50;;;;;;5067974;28;20822;-69
2022/12/28 09:47:57;;;;;;;360.70;334.80;;;7.70;15.00;;;;;;5076330;28;20483;-70
2022/12/28 09:50:33;;;;;;;162.63;148.40;;;7.70;15.10;;;;;;5075349;28;20927;-70
2022/12/28 09:53:18;;;;;;;178.13;163.30;;;7.70;15.00;;;;;;5074936;28;20906;-68
2022/12/28 09:56:17;;;;;;;319.43;296.07;;;7.60;15.00;;;;;;5084098;28;20444;-69
2022/12/28 09:58:43;;;;;;;276.27;255.97;;;7.60;15.30;;;;;;5082503;28;20497;-69
2022/12/28 10:01:13;;;;;;;243.07;223.80;;;7.50;15.40;;;;;;5089242;28;20962;-69
2022/12/28 10:03:40;;;;;;;448.37;417.33;;;7.40;15.70;;;;;;5088518;28;20449;-69
2022/12/28 10:06:13;;;;;;;543.53;500.40;;;7.40;15.90;;;;;;5089930;28;20423;-69
2022/12/28 10:08:43;;;;;;;115.60;102.80;;;7.40;15.90;;;;;;5086103;28;20438;-69
2022/12/28 10:11:17;;;;;;;380.00;353.63;;;7.50;16.10;;;;;;5089315;28;21001;-69
2022/12/28 10:13:43;;;;;;;383.77;357.23;;;7.50;16.00;;;;;;5108102;28;20460;-69
2022/12/28 10:16:19;;;;;;;350.03;325.87;;;7.50;16.00;;;;;;5093229;28;20426;-69
2022/12/28 10:18:46;;;;;;;277.27;256.33;;;7.40;15.80;;;;;;5088984;28;20827;-68
2022/12/28 10:21:12;;;;;;;177.13;161.97;;;7.40;15.90;;;;;;5085644;28;20438;-69
2022/12/28 10:23:40;;;;;;;378.13;350.57;;;7.40;16.10;;;;;;5068884;28;20443;-69
2022/12/28 10:26:06;;;;;;;411.03;383.30;;;7.50;15.50;;;;;;5068892;28;20421;-69
2022/12/28 10:28:48;;;;;;;423.33;395.17;;;7.60;15.20;;;;;;5079707;28;20466;-69
2022/12/28 10:31:15;;;;;;;320.43;299.07;;;7.60;15.60;;;;;;5069298;28;20539;-69
2022/12/28 10:33:50;;;;;;;242.97;225.50;;;7.70;15.70;;;;;;5068138;28;20462;-69
2022/12/28 10:36:17;;;;;;;379.70;355.97;;;7.90;15.40;;;;;;5067348;28;20957;-69
2022/12/28 10:38:49;;;;;;;259.87;242.00;;;8.00;15.30;;;;;;5080078;28;20427;-69
2022/12/28 10:41:17;;;;;;;294.30;273.73;;;8.10;14.60;;;;;;5088940;28;20461;-69
2022/12/28 10:43:52;;;;;;;393.57;366.47;;;8.20;14.40;;;;;;5088744;28;20938;-69
2022/12/28 10:46:22;;;;;;;311.83;289.80;;;8.30;14.40;;;;;;5074467;28;20883;-69
2022/12/28 10:49:13;;;;;;;282.23;262.37;;;8.50;13.80;;;;;;5079107;28;20434;-69
2022/12/28 10:51:57;;;;;;;208.33;193.03;;;8.60;13.70;;;;;;5088010;28;20801;-68
2022/12/28 10:54:24;;;;;;;171.17;158.47;;;8.80;13.80;;;;;;5104222;28;20436;-69
2022/12/28 10:56:49;;;;;;;294.13;274.33;;;8.90;12.90;;;;;;5086834;28;20483;-69
2022/12/28 10:59:24;;;;;;;346.20;322.00;;;9.10;13.20;;;;;;5089229;28;20911;-68
2022/12/28 11:01:49;;;;;;;409.23;383.10;;;9.00;12.30;;;;;;5091571;28;20197;-69
2022/12/28 11:04:21;;;;;;;447.63;414.57;;;8.80;12.70;;;;;;5092245;28;20427;-69
2022/12/28 11:07:01;;;;;;;367.67;343.47;;;8.70;13.10;;;;;;5091916;28;20214;-69
2022/12/28 11:09:32;;;;;;;493.10;458.10;;;8.80;12.90;;;;;;5079807;28;20510;-71
2022/12/28 11:12:23;;;;;;;644.43;600.70;;;8.50;13.10;;;;;;5082654;28;20928;-68
2022/12/28 11:14:51;;;;;;;406.73;378.67;;;8.50;13.50;;;;;;5073281;28;20884;-68
2022/12/28 11:17:20;;;;;;;448.53;417.40;;;8.50;13.60;;;;;;5071920;28;20919;-68
2022/12/28 11:19:48;;;;;;;498.67;464.73;;;8.50;13.60;;;;;;5087889;28;20421;-68
2022/12/28 11:22:20;;;;;;;381.80;356.00;;;8.60;13.90;;;;;;5092123;28;20461;-68
2022/12/28 11:24:46;;;;;;;466.07;434.37;;;8.60;12.90;;;;;;5092198;28;20447;-69
2022/12/28 11:27:15;;;;;;;280.23;261.13;;;8.70;13.50;;;;;;5092385;28;20445;-69
2022/12/28 11:29:45;;;;;;;359.10;334.83;;;8.70;13.30;;;;;;5092033;28;20258;-69
2022/12/28 11:32:24;;;;;;;468.23;435.97;;;8.90;12.80;;;;;;5089990;28;20431;-69
2022/12/28 11:34:51;;;;;;;381.17;354.80;;;8.90;13.10;;;;;;5091937;28;20449;-70
2022/12/28 11:37:17;;;;;;;380.60;354.30;;;9.00;12.80;;;;;;5091922;28;20446;-70
2022/12/28 11:39:51;;;;;;;364.13;337.70;;;9.00;12.70;;;;;;5092246;28;20977;-70
2022/12/28 11:42:31;;;;;;;473.07;441.50;;;9.10;12.50;;;;;;5090675;28;20220;-70
2022/12/28 11:44:59;;;;;;;379.47;354.70;;;9.10;12.50;;;;;;5107249;28;20429;-70
2022/12/28 11:47:32;;;;;;;390.87;364.17;;;9.20;12.40;;;;;;5091790;28;20411;-69
2022/12/28 11:50:37;;;;;;;289.43;269.97;;;9.30;12.00;;;;;;5107954;28;20927;-69
2022/12/28 11:53:23;;;;;;;408.47;381.53;;;9.20;12.40;;;;;;5091643;28;20777;-68
2022/12/28 11:55:57;;;;;;;327.87;305.03;;;9.20;12.10;;;;;;5080756;28;20527;-69
2022/12/28 11:58:41;;;;;;;326.37;304.27;;;9.30;12.30;;;;;;5091771;28;20433;-69
2022/12/28 12:01:28;;;;;;;281.63;262.53;;;9.30;11.50;;;;;;5090608;28;20449;-69
2022/12/28 12:03:56;;;;;;;376.67;350.97;;;9.50;12.00;;;;;;5081146;28;20422;-69
2022/12/28 12:06:43;;;;;;;517.07;480.87;;;9.60;11.50;;;;;;5091721;28;20447;-69
2022/12/28 12:09:22;;;;;;;365.77;340.97;;;9.50;11.70;;;;;;5091794;28;20494;-69
2022/12/28 12:11:53;;;;;;;383.43;356.27;;;9.50;11.80;;;;;;5091335;28;20457;-68
2022/12/28 12:14:35;;;;;;;503.53;469.10;;;9.40;12.10;;;;;;5107102;28;20818;-68
2022/12/28 12:17:36;;;;;;;378.07;350.27;;;9.40;11.90;;;;;;5091651;28;20411;-67
2022/12/28 12:20:07;;;;;;;386.07;359.03;;;9.40;12.20;;;;;;5091550;28;20422;-68
2022/12/28 12:22:43;;;;;;;445.63;413.97;;;9.30;12.40;;;;;;5090950;28;20435;-68
2022/12/28 12:25:15;;;;;;;476.23;442.87;;;9.20;12.60;;;;;;5086456;28;20441;-69
2022/12/28 12:27:46;;;;;;;380.23;353.70;;;9.30;12.90;;;;;;5077081;28;20435;-70
2022/12/28 12:30:13;;;;;;;348.83;325.83;;;9.20;12.70;;;;;;5074685;28;20469;-69
2022/12/28 12:33:10;;;;;;;541.53;502.80;;;9.30;12.80;;;;;;5093300;28;20453;-70
2022/12/28 12:36:08;;;;;;;467.90;435.33;;;9.20;12.90;;;;;;5074820;28;20509;-70
2022/12/28 12:38:39;;;;;;;392.43;366.10;;;9.30;13.00;;;;;;5075163;28;20435;-74
2022/12/28 12:41:23;;;;;;;387.10;361.53;;;9.20;12.50;;;;;;5075184;28;20438;-69
2022/12/28 12:44:17;;;;;;;257.90;240.97;;;9.20;13.50;;;;;;5086310;28;20456;-69
2022/12/28 12:47:18;;;;;;;374.03;348.57;;;9.40;12.90;;;;;;5082755;28;20465;-70
2022/12/28 12:49:54;;;;;;;525.40;487.83;;;9.60;12.10;;;;;;5074939;28;20952;-70
2022/12/28 12:52:19;;;;;;;337.27;314.27;;;9.80;12.20;;;;;;5074943;28;20458;-70
2022/12/28 12:55:01;;;;;;;269.97;251.67;;;10.00;11.00;;;;;;5075439;28;20424;-70
2022/12/28 12:57:51;;;;;;;383.83;355.37;;;10.10;10.30;;;;;;5095043;28;20177;-69